Humidity-temperature Sensor

Selected Measurement Type: Air Temperature

 
Air Temperature [°C]     6 entries per hour
Showing data from 9/19/2022 (00:00:00 Z) to 9/16/2022 (00:01:00 Z)
Previous Next [ Day | 3-Days | 7-Days ]
First Last
Prev [ Day | 3-Days | 7-Days ] Next
First Last

Start Time:     :
End Time:     :     
Time (in GMT) :00 :50 :40 :30 :20 :10
Previous Next [ Day | 3-Days | 7-Days ]
First Last
Prev [ Day | 3-Days | 7-Days ] Next
First Last


123 => good data
MM => data is determined as missing
-- => data not received/configured
Back to Top Back to Top
9/19/2022 00:00 to 23:10 22.07 21.97 22.04 22.10 22.23 22.33
9/18/2022 23:00 to 22:10 22.27 22.16 22.03 22.04 22.13 22.03
9/18/2022 22:00 to 21:10 22.03 22.03 22.03 21.88 21.92 21.90
9/18/2022 21:00 to 20:10 21.86 21.78 21.71 21.71 21.72 21.75
9/18/2022 20:00 to 19:10 21.78 21.70 21.64 21.59 21.60 21.63
9/18/2022 19:00 to 18:10 21.54 21.77 21.61 21.59 21.57 21.57
9/18/2022 18:00 to 17:10 21.47 21.50 21.52 21.45 21.47 21.56
9/18/2022 17:00 to 16:10 21.49 21.50 21.51 21.50 21.63 21.53
9/18/2022 16:00 to 15:10 21.52 21.54 21.52 21.48 21.54 21.53
9/18/2022 15:00 to 14:10 21.53 21.53 21.49 21.47 21.45 21.39
9/18/2022 14:00 to 13:10 21.34 21.29 21.19 21.25 21.28 21.26
9/18/2022 13:00 to 12:10 21.28 21.20 21.25 21.22 21.30 21.22
9/18/2022 12:00 to 11:10 21.28 21.29 21.29 21.31 21.32 21.27
9/18/2022 11:00 to 10:10 21.13 21.21 21.33 21.27 21.25 21.27
9/18/2022 10:00 to 9:10 21.21 21.27 21.29 21.32 21.29 21.28
9/18/2022 09:00 to 8:10 21.27 21.27 21.23 21.22 21.24 21.22
9/18/2022 08:00 to 7:10 21.24 21.35 21.24 21.21 21.37 21.21
9/18/2022 07:00 to 6:10 21.40 21.39 21.39 21.45 21.52 21.47
9/18/2022 06:00 to 5:10 21.47 21.50 21.51 21.52 21.55 21.53
9/18/2022 05:00 to 4:10 21.52 21.52 21.65 21.66 21.62 21.57
9/18/2022 04:00 to 3:10 21.59 21.62 21.68 21.66 21.60 21.63
9/18/2022 03:00 to 2:10 21.63 21.64 21.63 21.62 21.64 21.58
9/18/2022 02:00 to 1:10 21.59 21.69 21.71 21.68 21.79 21.76
9/18/2022 01:00 to 0:10 21.97 21.97 22.09 21.99 22.14 22.13
9/18/2022 00:00 to 23:10 22.22 22.29 22.37 22.18 22.07 22.12
9/17/2022 23:00 to 22:10 22.16 22.09 22.15 21.97 22.09 22.05
9/17/2022 22:00 to 21:10 21.92 22.09 21.93 21.91 21.96 21.90
9/17/2022 21:00 to 20:10 21.83 21.80 21.75 21.81 21.77 21.79
9/17/2022 20:00 to 19:10 21.80 21.76 21.63 21.83 21.61 21.56
9/17/2022 19:00 to 18:10 21.69 21.54 21.64 21.63 21.57 21.65
9/17/2022 18:00 to 17:10 21.63 21.63 21.59 21.61 21.59 21.67
9/17/2022 17:00 to 16:10 21.58 21.59 21.49 21.49 21.64 21.59
9/17/2022 16:00 to 15:10 21.64 21.72 21.62 21.57 21.65 21.59
9/17/2022 15:00 to 14:10 21.55 21.59 21.57 21.43 21.49 21.53
9/17/2022 14:00 to 13:10 21.35 21.37 21.25 21.36 21.21 21.19
9/17/2022 13:00 to 12:10 21.21 21.20 21.27 21.27 21.30 21.22
9/17/2022 12:00 to 11:10 21.32 21.24 21.22 21.18 21.23 21.24
9/17/2022 11:00 to 10:10 21.31 21.19 21.21 21.17 21.29 21.20
9/17/2022 10:00 to 9:10 21.32 21.27 21.22 21.36 21.20 21.30
9/17/2022 09:00 to 8:10 21.28 21.38 21.36 21.40 21.35 21.47
9/17/2022 08:00 to 7:10 21.35 21.46 21.44 21.43 21.51 21.54
9/17/2022 07:00 to 6:10 21.60 21.62 21.67 21.66 21.65 21.72
9/17/2022 06:00 to 5:10 21.67 21.65 21.71 21.76 21.72 21.77
9/17/2022 05:00 to 4:10 21.73 21.70 21.77 21.84 21.90 21.90
9/17/2022 04:00 to 3:10 21.98 21.92 21.89 21.94 21.80 21.95
9/17/2022 03:00 to 2:10 21.75 21.81 21.87 21.85 21.80 21.87
9/17/2022 02:00 to 1:10 21.85 21.91 21.80 21.80 21.82 21.83
9/17/2022 01:00 to 0:10 21.96 21.87 22.28 22.18 22.24 22.24
9/17/2022 00:00 to 23:10 22.29 22.15 22.12 22.19 22.28 22.25
9/16/2022 23:00 to 22:10 22.32 22.31 22.13 22.16 22.17 22.07
9/16/2022 22:00 to 21:10 22.11 22.03 22.16 22.05 22.20 22.17
9/16/2022 21:00 to 20:10 22.16 22.17 22.30 22.24 22.24 22.27
9/16/2022 20:00 to 19:10 22.25 22.07 22.09 22.02 22.02 21.86
9/16/2022 19:00 to 18:10 21.88 21.97 21.85 21.80 21.72 21.81
9/16/2022 18:00 to 17:10 21.84 21.89 21.85 21.88 21.89 21.86
9/16/2022 17:00 to 16:10 21.78 21.53 21.45 21.62 21.44 21.39
9/16/2022 16:00 to 15:10 21.53 21.44 21.47 21.41 21.33 21.30
9/16/2022 15:00 to 14:10 21.35 21.31 21.27 21.21 21.20 21.25
9/16/2022 14:00 to 13:10 21.25 21.17 21.10 21.13 21.10 21.09
9/16/2022 13:00 to 12:10 21.18 21.13 21.10 21.12 21.11 21.17
9/16/2022 12:00 to 11:10 21.12 21.05 21.07 21.08 21.05 20.99
9/16/2022 11:00 to 10:10 20.99 20.96 21.05 20.99 20.95 20.99
9/16/2022 10:00 to 9:10 20.95 20.99 20.95 21.08 21.14 21.00
9/16/2022 09:00 to 8:10 21.08 21.16 21.08 21.07 21.12 21.21
9/16/2022 08:00 to 7:10 21.13 21.11 21.16 21.14 21.18 21.18
9/16/2022 07:00 to 6:10 21.22 21.29 21.29 21.36 21.30 21.31
9/16/2022 06:00 to 5:10 21.29 21.39 21.37 21.39 21.40 21.43
9/16/2022 05:00 to 4:10 21.40 21.39 21.40 21.46 21.47 21.42
9/16/2022 04:00 to 3:10 21.45 21.48 21.53 21.46 21.49 21.47
9/16/2022 03:00 to 2:10 21.51 21.56 21.54 21.52 21.59 21.63
9/16/2022 02:00 to 1:10 21.59 21.56 21.61 21.65 21.68 21.69
9/16/2022 01:00 to 0:10 21.88 21.91 22.02 22.08 22.03 22.20